Time;durP1;ratioP1;P1;durP2;ratioP2;P2;SDS_P1;SDS_P2;PMS_P1;PMS_P2;Temp;Humidity;BMP_temperature;BMP_pressure;BME280_temperature;BME280_humidity;BME280_pressure;Samples;Min_cycle;Max_cycle;Signal;HPM_P1;HPM_P2
2022/10/15 00:01:39;;;;;;;75.78;43.33;;;11.40;99.90;;;;;;5047313;28;20530;-43
2022/10/15 00:04:05;;;;;;;74.18;42.13;;;11.10;99.90;;;;;;5041897;28;20032;-42
2022/10/15 00:06:31;;;;;;;79.45;43.22;;;11.10;99.90;;;;;;5041367;28;20043;-43
2022/10/15 00:08:57;;;;;;;79.35;45.30;;;11.00;99.90;;;;;;5046387;28;20037;-41
2022/10/15 00:11:27;;;;;;;84.53;45.47;;;11.30;99.90;;;;;;5046022;28;20396;-42
2022/10/15 00:13:54;;;;;;;80.38;44.08;;;11.50;99.90;;;;;;5047246;28;20064;-43
2022/10/15 00:16:23;;;;;;;85.68;45.53;;;11.50;99.90;;;;;;5041512;28;20039;-42
2022/10/15 00:18:50;;;;;;;83.72;45.72;;;11.10;99.90;;;;;;5043798;28;20468;-43
2022/10/15 00:21:18;;;;;;;92.25;53.67;;;11.00;99.90;;;;;;5045301;28;20120;-44
2022/10/15 00:23:44;;;;;;;88.43;45.05;;;11.10;99.90;;;;;;5045663;28;20107;-42
2022/10/15 00:26:16;;;;;;;85.00;44.92;;;11.20;99.90;;;;;;5045636;28;20072;-42
2022/10/15 00:28:42;;;;;;;84.90;46.00;;;11.70;99.90;;;;;;5040329;28;20041;-42
2022/10/15 00:31:10;;;;;;;89.10;46.75;;;11.70;99.90;;;;;;5039528;28;20382;-43
2022/10/15 00:33:37;;;;;;;90.80;54.40;;;11.30;99.90;;;;;;5036628;28;20044;-43
2022/10/15 00:36:07;;;;;;;76.47;43.13;;;11.70;99.90;;;;;;5043066;28;20102;-42
2022/10/15 00:38:34;;;;;;;93.20;46.38;;;11.70;99.90;;;;;;5034999;28;20053;-42
2022/10/15 00:41:00;;;;;;;77.22;43.72;;;11.60;99.90;;;;;;5035471;28;20037;-42
2022/10/15 00:43:38;;;;;;;79.07;44.17;;;11.70;99.90;;;;;;5044506;28;20119;-43
2022/10/15 00:46:11;;;;;;;78.47;42.38;;;11.20;99.90;;;;;;5042944;28;20502;-43
2022/10/15 00:48:37;;;;;;;79.20;44.45;;;11.60;99.90;;;;;;5045135;28;20365;-43
2022/10/15 00:51:04;;;;;;;74.95;44.22;;;11.20;99.90;;;;;;5046260;28;20048;-43
2022/10/15 00:53:30;;;;;;;72.57;42.35;;;11.80;99.90;;;;;;5038214;28;20045;-43
2022/10/15 00:55:55;;;;;;;72.93;42.97;;;11.60;99.90;;;;;;5043736;28;20486;-42
2022/10/15 00:58:29;;;;;;;73.75;42.53;;;11.70;99.90;;;;;;5042064;28;20132;-42
2022/10/15 01:00:55;;;;;;;69.40;41.65;;;11.30;99.90;;;;;;5043726;28;20090;-44
2022/10/15 01:03:22;;;;;;;66.28;40.42;;;11.70;99.90;;;;;;5046049;28;20072;-43
2022/10/15 01:05:50;;;;;;;76.18;49.22;;;11.80;99.90;;;;;;5041912;28;20381;-42
2022/10/15 01:08:16;;;;;;;60.22;38.85;;;11.60;99.90;;;;;;5040726;28;20083;-44
2022/10/15 01:11:00;;;;;;;62.55;38.35;;;11.50;99.90;;;;;;5041482;28;20488;-42
2022/10/15 01:13:37;;;;;;;65.45;40.22;;;11.60;99.90;;;;;;5042955;28;20053;-42
2022/10/15 01:16:14;;;;;;;60.10;44.05;;;11.50;99.90;;;;;;5044763;28;20037;-43
2022/10/15 01:19:02;;;;;;;56.72;35.63;;;11.30;99.90;;;;;;5045869;28;20484;-43
2022/10/15 01:21:45;;;;;;;54.80;34.78;;;11.80;99.90;;;;;;5040545;28;20056;-42
2022/10/15 01:24:29;;;;;;;58.55;36.08;;;11.20;99.90;;;;;;5040696;28;20124;-42
2022/10/15 01:27:17;;;;;;;58.95;35.83;;;11.40;99.90;;;;;;5042115;28;20060;-42
2022/10/15 01:30:06;;;;;;;58.85;35.67;;;11.40;99.90;;;;;;5046278;28;20037;-42
2022/10/15 01:32:39;;;;;;;54.47;35.67;;;11.30;99.90;;;;;;5045605;28;20045;-42
2022/10/15 01:35:10;;;;;;;55.50;35.95;;;11.20;99.90;;;;;;5043161;28;20092;-42
2022/10/15 01:37:40;;;;;;;54.20;35.28;;;11.70;99.90;;;;;;5043980;28;20084;-42
2022/10/15 01:40:25;;;;;;;57.78;34.70;;;11.60;99.90;;;;;;5046825;28;20041;-43
2022/10/15 01:42:59;;;;;;;54.00;35.60;;;11.40;99.90;;;;;;5048831;28;20044;-42
2022/10/15 01:45:28;;;;;;;;;;;11.20;99.90;;;;;;5049816;28;20068;-42
2022/10/15 01:47:58;;;;;;;49.03;31.52;;;11.40;99.90;;;;;;5042571;28;19927;-42
2022/10/15 01:50:27;;;;;;;49.97;31.80;;;11.50;99.90;;;;;;5043578;28;20037;-43
2022/10/15 01:52:55;;;;;;;54.10;33.97;;;11.60;99.90;;;;;;5046180;28;20476;-43
2022/10/15 01:55:23;;;;;;;55.65;34.28;;;11.40;99.90;;;;;;5048091;28;20036;-42
2022/10/15 01:57:51;;;;;;;52.65;33.35;;;11.60;99.90;;;;;;5050187;28;20049;-44
2022/10/15 02:00:17;;;;;;;54.15;33.75;;;11.20;99.90;;;;;;5044524;28;20060;-43
2022/10/15 02:02:43;;;;;;;51.85;32.80;;;11.60;99.90;;;;;;5043972;28;20040;-43
2022/10/15 02:05:18;;;;;;;51.83;33.22;;;11.10;99.90;;;;;;5045890;28;20548;-42
2022/10/15 02:07:59;;;;;;;51.70;31.60;;;11.40;99.90;;;;;;5047716;28;20156;-42
2022/10/15 02:10:56;;;;;;;53.00;33.42;;;11.20;99.90;;;;;;5047311;28;20048;-42
2022/10/15 02:14:10;;;;;;;50.33;31.85;;;11.60;99.90;;;;;;5042192;28;20069;-43
2022/10/15 02:16:42;;;;;;;50.80;30.90;;;11.50;99.90;;;;;;5041585;28;20484;-44
2022/10/15 02:19:33;;;;;;;53.58;32.95;;;11.30;99.90;;;;;;5046952;28;20032;-42
2022/10/15 02:22:25;;;;;;;48.92;31.83;;;11.10;99.90;;;;;;5047791;28;20558;-42
2022/10/15 02:25:13;;;;;;;56.05;32.35;;;11.30;99.90;;;;;;5048473;28;20040;-42
2022/10/15 02:27:40;;;;;;;54.53;32.47;;;11.20;99.90;;;;;;5042707;28;20040;-42
2022/10/15 02:30:08;;;;;;;55.42;33.20;;;11.20;99.90;;;;;;5044559;28;20044;-42
2022/10/15 02:32:38;;;;;;;57.30;34.10;;;11.40;99.90;;;;;;5046750;28;20037;-43
2022/10/15 02:35:07;;;;;;;51.35;33.00;;;11.20;99.90;;;;;;5046511;28;20516;-43
2022/10/15 02:37:34;;;;;;;58.08;36.70;;;11.70;99.90;;;;;;5048534;28;20465;-43
2022/10/15 02:40:00;;;;;;;53.60;35.67;;;11.60;99.90;;;;;;5045461;28;20052;-42
2022/10/15 02:42:29;;;;;;;57.65;34.58;;;11.40;99.90;;;;;;5042391;28;20036;-43
2022/10/15 02:44:54;;;;;;;56.35;34.92;;;11.20;99.90;;;;;;5046207;28;20380;-42
2022/10/15 02:47:20;;;;;;;55.88;34.65;;;11.30;99.90;;;;;;5047070;28;20044;-42
2022/10/15 02:49:45;;;;;;;59.65;35.92;;;11.20;99.90;;;;;;5048458;28;20051;-44
2022/10/15 02:52:11;;;;;;;62.53;36.40;;;11.40;99.90;;;;;;5046042;28;20272;-42
2022/10/15 02:54:37;;;;;;;55.20;35.33;;;11.60;99.90;;;;;;5043148;28;20036;-43
2022/10/15 02:57:02;;;;;;;64.25;36.30;;;11.30;99.90;;;;;;5045188;28;20033;-43
2022/10/15 02:59:28;;;;;;;62.28;36.97;;;11.70;99.90;;;;;;5046413;28;20071;-43
2022/10/15 03:01:54;;;;;;;57.35;36.88;;;11.20;99.90;;;;;;5048246;28;20041;-43
2022/10/15 03:04:19;;;;;;;67.47;45.55;;;11.70;99.90;;;;;;5044521;28;20029;-42
2022/10/15 03:06:45;;;;;;;59.60;35.88;;;11.70;99.90;;;;;;5040658;28;20123;-43
2022/10/15 03:09:11;;;;;;;61.22;37.80;;;11.60;99.90;;;;;;5046558;28;20041;-42
2022/10/15 03:11:38;;;;;;;65.40;38.40;;;11.60;99.90;;;;;;5047392;28;20041;-42
2022/10/15 03:14:03;;;;;;;72.53;47.17;;;11.10;99.90;;;;;;5045354;28;20045;-45
2022/10/15 03:16:29;;;;;;;67.32;39.42;;;11.30;99.90;;;;;;5040633;28;20132;-45
2022/10/15 03:18:55;;;;;;;73.68;41.13;;;11.50;99.90;;;;;;5044334;28;20033;-46
2022/10/15 03:21:20;;;;;;;70.60;41.47;;;11.10;99.90;;;;;;5046267;28;20032;-45
2022/10/15 03:23:46;;;;;;;68.97;41.17;;;11.40;99.90;;;;;;5048423;28;20413;-47
2022/10/15 03:26:12;;;;;;;78.03;43.10;;;11.50;99.90;;;;;;5041241;28;20479;-45
2022/10/15 03:28:37;;;;;;;72.85;42.58;;;11.10;99.90;;;;;;5042324;28;20040;-46
2022/10/15 03:31:03;;;;;;;81.05;44.92;;;10.90;99.90;;;;;;5046010;28;20045;-45
2022/10/15 03:33:29;;;;;;;85.20;54.33;;;11.50;99.90;;;;;;5046173;28;20037;-45
2022/10/15 03:35:56;;;;;;;83.97;45.22;;;11.20;99.90;;;;;;5047924;28;20056;-45
2022/10/15 03:38:21;;;;;;;83.15;46.50;;;11.50;99.90;;;;;;5042433;28;20068;-46
2022/10/15 03:40:47;;;;;;;86.88;47.28;;;11.50;99.90;;;;;;5041855;28;20040;-44
2022/10/15 03:43:13;;;;;;;90.32;48.17;;;10.90;99.90;;;;;;5043484;28;20064;-45
2022/10/15 03:45:38;;;;;;;85.13;48.88;;;11.40;99.90;;;;;;5045865;28;20037;-44
2022/10/15 03:48:05;;;;;;;89.57;47.72;;;11.50;99.90;;;;;;5046377;28;20045;-46
2022/10/15 03:50:30;;;;;;;96.85;48.72;;;11.20;99.90;;;;;;5045994;28;20604;-45
2022/10/15 03:52:56;;;;;;;99.60;49.55;;;10.90;99.90;;;;;;5040667;28;20061;-44
2022/10/15 03:55:21;;;;;;;94.55;49.80;;;11.40;99.90;;;;;;5042042;28;20041;-44
2022/10/15 03:57:47;;;;;;;95.95;51.63;;;11.50;99.90;;;;;;5044138;28;20041;-46
2022/10/15 04:00:13;;;;;;;101.88;52.10;;;11.00;99.90;;;;;;5046388;28;20124;-44
2022/10/15 04:02:39;;;;;;;103.75;53.38;;;11.50;99.90;;;;;;5047390;28;20114;-45
2022/10/15 04:05:05;;;;;;;107.18;52.70;;;11.60;99.90;;;;;;5042070;28;20563;-45
2022/10/15 04:07:31;;;;;;;102.18;51.63;;;11.00;99.90;;;;;;5043028;28;20408;-44
2022/10/15 04:09:56;;;;;;;99.88;52.80;;;11.10;99.90;;;;;;5044660;28;20076;-44
2022/10/15 04:12:23;;;;;;;100.68;52.08;;;11.30;99.90;;;;;;5046442;28;20468;-44
2022/10/15 04:14:48;;;;;;;87.70;47.42;;;11.20;99.90;;;;;;5047878;28;20477;-44
2022/10/15 04:17:14;;;;;;;94.20;50.92;;;11.00;99.90;;;;;;5042157;28;20045;-45
2022/10/15 04:19:40;;;;;;;99.18;52.60;;;11.20;99.90;;;;;;5042968;28;20029;-44
2022/10/15 04:22:06;;;;;;;94.70;49.58;;;11.50;99.90;;;;;;5043683;28;20543;-44
2022/10/15 04:24:32;;;;;;;98.40;51.88;;;11.40;99.90;;;;;;5044832;28;20045;-46
2022/10/15 04:26:57;;;;;;;103.85;52.30;;;11.30;99.90;;;;;;5046321;28;20139;-46
2022/10/15 04:29:23;;;;;;;91.88;50.80;;;11.00;99.90;;;;;;5045806;28;20033;-45
2022/10/15 04:31:48;;;;;;;96.55;50.10;;;11.50;99.90;;;;;;5039115;28;20096;-44
2022/10/15 04:34:14;;;;;;;100.85;51.97;;;11.00;99.90;;;;;;5041190;28;20550;-45
2022/10/15 04:36:40;;;;;;;100.88;50.78;;;11.40;99.90;;;;;;5043325;28;20485;-44
2022/10/15 04:39:05;;;;;;;109.57;63.08;;;11.40;99.90;;;;;;5043503;28;20086;-46
2022/10/15 04:41:31;;;;;;;108.13;50.55;;;11.30;99.90;;;;;;5046266;28;20032;-44
2022/10/15 04:43:57;;;;;;;111.80;53.42;;;11.00;99.90;;;;;;5047609;28;20098;-46
2022/10/15 04:46:23;;;;;;;118.13;54.60;;;11.10;99.90;;;;;;5040192;28;20389;-44
2022/10/15 04:48:49;;;;;;;121.20;57.88;;;11.30;99.90;;;;;;5040110;28;20069;-45
2022/10/15 04:51:18;;;;;;;124.03;56.90;;;11.40;99.90;;;;;;5041736;28;20049;-45
2022/10/15 04:53:44;;;;;;;120.43;57.42;;;11.00;99.90;;;;;;5042446;28;20048;-46
2022/10/15 04:56:14;;;;;;;132.63;57.97;;;11.20;99.90;;;;;;5045038;28;20044;-46
2022/10/15 04:58:41;;;;;;;121.30;56.30;;;11.10;99.90;;;;;;5043467;28;20033;-45
2022/10/15 05:01:12;;;;;;;129.57;58.92;;;11.40;99.90;;;;;;5040071;28;20123;-45
2022/10/15 05:03:38;;;;;;;130.73;57.05;;;11.00;99.90;;;;;;5041727;28;20120;-43
2022/10/15 05:06:07;;;;;;;130.75;56.75;;;11.40;99.90;;;;;;5043235;28;20033;-44
2022/10/15 05:08:34;;;;;;;121.10;56.47;;;11.50;99.90;;;;;;5046250;28;20138;-43
2022/10/15 05:11:05;;;;;;;130.85;56.15;;;11.60;99.90;;;;;;5044337;28;20044;-45
2022/10/15 05:13:32;;;;;;;121.22;55.70;;;11.50;99.90;;;;;;5040602;28;20091;-46
2022/10/15 05:16:15;;;;;;;126.47;57.28;;;11.60;99.90;;;;;;5041690;28;20488;-44
2022/10/15 05:18:42;;;;;;;120.15;56.50;;;11.40;99.90;;;;;;5044696;28;20365;-47
2022/10/15 05:21:09;;;;;;;114.03;55.35;;;11.70;99.90;;;;;;5046239;28;20045;-45
2022/10/15 05:23:35;;;;;;;121.50;55.85;;;11.70;99.90;;;;;;5045260;28;20145;-44
2022/10/15 05:26:10;;;;;;;123.15;55.92;;;11.60;99.90;;;;;;5042111;28;20029;-44
2022/10/15 05:28:36;;;;;;;127.03;57.38;;;11.60;99.90;;;;;;5041408;28;20037;-44
2022/10/15 05:31:06;;;;;;;125.38;57.85;;;11.40;99.90;;;;;;5041655;28;20064;-44
2022/10/15 05:33:32;;;;;;;133.18;57.22;;;11.60;99.90;;;;;;5042836;28;20048;-44
2022/10/15 05:36:12;;;;;;;123.85;57.85;;;11.60;99.90;;;;;;5044077;28;20049;-45
2022/10/15 05:38:38;;;;;;;121.03;56.75;;;11.20;99.90;;;;;;5046794;28;20056;-44
2022/10/15 05:41:04;;;;;;;117.32;56.03;;;11.70;99.90;;;;;;5041508;28;20461;-47
2022/10/15 05:43:30;;;;;;;120.93;56.88;;;11.40;99.90;;;;;;5042691;28;20029;-48
2022/10/15 05:45:56;;;;;;;121.57;57.42;;;11.70;99.90;;;;;;5041892;28;20036;-47
2022/10/15 05:48:23;;;;;;;127.50;59.45;;;11.70;99.90;;;;;;5042607;28;20482;-44
2022/10/15 05:50:48;;;;;;;124.93;59.78;;;11.40;99.90;;;;;;5044229;28;20059;-45
2022/10/15 05:53:14;;;;;;;124.28;59.97;;;11.40;99.90;;;;;;5045597;28;20033;-44
2022/10/15 05:55:40;;;;;;;137.00;59.22;;;11.20;99.90;;;;;;5042809;28;20033;-45
2022/10/15 05:58:06;;;;;;;121.32;58.47;;;11.80;99.90;;;;;;5040254;28;20037;-44
2022/10/15 06:00:32;;;;;;;111.50;55.50;;;11.30;99.90;;;;;;5039510;28;20098;-48
2022/10/15 06:02:58;;;;;;;116.55;58.17;;;11.30;99.90;;;;;;5044963;28;20064;-44
2022/10/15 06:05:23;;;;;;;118.82;57.47;;;11.50;99.90;;;;;;5044060;28;20044;-45
2022/10/15 06:07:49;;;;;;;122.43;59.33;;;11.90;99.90;;;;;;5044840;28;20047;-46
2022/10/15 06:10:15;;;;;;;125.63;68.13;;;11.90;99.90;;;;;;5043691;28;20072;-49
2022/10/15 06:12:41;;;;;;;129.57;59.38;;;11.80;99.90;;;;;;5039310;28;20063;-48
2022/10/15 06:15:08;;;;;;;119.25;55.10;;;11.70;99.90;;;;;;5041548;28;20052;-45
2022/10/15 06:17:34;;;;;;;122.90;58.95;;;11.40;99.90;;;;;;5046456;28;20036;-45
2022/10/15 06:20:00;;;;;;;120.95;58.38;;;11.90;99.90;;;;;;5046210;28;20032;-46
2022/10/15 06:22:28;;;;;;;113.45;52.80;;;11.40;99.90;;;;;;5048962;28;20045;-46
2022/10/15 06:24:55;;;;;;;114.20;55.97;;;11.80;99.90;;;;;;5049417;28;20032;-44
2022/10/15 06:27:20;;;;;;;113.78;56.13;;;11.90;99.90;;;;;;5045668;28;20041;-47
2022/10/15 06:29:46;;;;;;;111.28;53.55;;;11.80;99.90;;;;;;5044047;28;20072;-46
2022/10/15 06:32:12;;;;;;;115.88;55.33;;;11.60;99.90;;;;;;5044202;28;20044;-46
2022/10/15 06:34:37;;;;;;;111.72;55.15;;;11.50;99.90;;;;;;5047184;28;20041;-46
2022/10/15 06:37:03;;;;;;;111.82;55.13;;;11.80;99.90;;;;;;5047927;28;20075;-46
2022/10/15 06:39:29;;;;;;;107.45;54.30;;;11.90;99.90;;;;;;5044941;28;20048;-48
2022/10/15 06:41:54;;;;;;;102.40;52.58;;;12.00;99.90;;;;;;5044138;28;20098;-48
2022/10/15 06:44:20;;;;;;;117.57;56.42;;;11.40;99.90;;;;;;5045495;28;20339;-45
2022/10/15 06:46:46;;;;;;;112.97;57.10;;;11.30;99.90;;;;;;5044981;28;20083;-45
2022/10/15 06:49:11;;;;;;;121.60;65.80;;;11.40;99.90;;;;;;5049084;28;20036;-47
2022/10/15 06:51:37;;;;;;;107.80;52.78;;;11.40;99.90;;;;;;5041397;28;20388;-48
2022/10/15 06:54:05;;;;;;;108.90;54.72;;;11.40;99.90;;;;;;5043413;28;20128;-44
2022/10/15 06:56:31;;;;;;;112.32;55.35;;;12.20;99.90;;;;;;5045813;28;20047;-46
2022/10/15 06:58:57;;;;;;;120.15;56.80;;;11.30;99.90;;;;;;5047694;28;20094;-46
2022/10/15 07:01:22;;;;;;;120.10;57.58;;;11.40;99.90;;;;;;5047500;28;20152;-44
2022/10/15 07:03:49;;;;;;;126.97;60.70;;;11.40;99.90;;;;;;5049225;28;20032;-45
2022/10/15 07:06:15;;;;;;;118.53;59.45;;;11.50;99.90;;;;;;5046013;28;20032;-44
2022/10/15 07:08:41;;;;;;;114.30;57.75;;;11.60;99.90;;;;;;5046708;28;20059;-45
2022/10/15 07:11:10;;;;;;;116.13;57.60;;;11.30;99.90;;;;;;5045552;28;20091;-45
2022/10/15 07:13:36;;;;;;;116.68;57.70;;;11.90;99.90;;;;;;5047525;28;20183;-45
2022/10/15 07:16:07;;;;;;;109.28;56.33;;;11.80;99.90;;;;;;5046562;28;20102;-48
2022/10/15 07:18:34;;;;;;;122.03;60.72;;;11.70;99.90;;;;;;5046162;28;20432;-46
2022/10/15 07:21:00;;;;;;;116.57;57.05;;;11.50;99.90;;;;;;5040791;28;20040;-45
2022/10/15 07:23:26;;;;;;;121.70;59.88;;;11.40;99.90;;;;;;5043068;28;20076;-47
2022/10/15 07:25:51;;;;;;;134.55;74.00;;;11.80;99.90;;;;;;5045579;28;20060;-45
2022/10/15 07:28:17;;;;;;;124.25;62.38;;;11.70;99.90;;;;;;5046527;28;20041;-47
2022/10/15 07:30:43;;;;;;;126.15;60.60;;;11.50;99.90;;;;;;5046784;28;20091;-47
2022/10/15 07:33:09;;;;;;;132.13;64.80;;;12.00;99.90;;;;;;5057411;28;20496;-46
2022/10/15 07:35:36;;;;;;;140.20;65.25;;;11.90;99.90;;;;;;5044279;28;20083;-46
2022/10/15 07:38:09;;;;;;;137.63;66.55;;;11.80;99.90;;;;;;5044615;28;20503;-47
2022/10/15 07:40:35;;;;;;;142.07;76.57;;;11.60;99.90;;;;;;5040318;28;20036;-45
2022/10/15 07:43:01;;;;;;;134.82;63.47;;;12.20;99.90;;;;;;5046210;28;20032;-44
2022/10/15 07:45:26;;;;;;;157.05;81.03;;;11.80;99.90;;;;;;5046124;28;20029;-45
2022/10/15 07:47:52;;;;;;;150.10;65.32;;;12.20;99.90;;;;;;5044925;28;20101;-50
2022/10/15 07:50:18;;;;;;;141.23;64.20;;;12.00;99.90;;;;;;5041292;28;20094;-46
2022/10/15 07:52:44;;;;;;;149.25;67.70;;;12.40;99.90;;;;;;5045259;28;20116;-45
2022/10/15 07:55:10;;;;;;;143.02;76.18;;;11.90;99.90;;;;;;5045778;28;20572;-44
2022/10/15 07:57:36;;;;;;;153.32;69.53;;;11.90;99.90;;;;;;5045833;28;20056;-47
2022/10/15 08:00:01;;;;;;;150.07;66.85;;;11.90;99.90;;;;;;5039892;28;20486;-45
2022/10/15 08:02:27;;;;;;;145.07;69.07;;;12.10;99.90;;;;;;5036249;28;20035;-46
2022/10/15 08:04:53;;;;;;;155.10;66.15;;;12.20;99.90;;;;;;5039290;28;20344;-45
2022/10/15 08:07:18;;;;;;;142.35;66.45;;;12.60;99.90;;;;;;5039290;28;20388;-45
2022/10/15 08:09:44;;;;;;;145.00;62.85;;;12.60;99.90;;;;;;5036156;28;20422;-47
2022/10/15 08:12:09;;;;;;;145.77;61.25;;;12.50;99.90;;;;;;5037888;28;20048;-45
2022/10/15 08:14:36;;;;;;;146.88;63.47;;;12.60;99.90;;;;;;5038462;28;20385;-47
2022/10/15 08:17:03;;;;;;;139.93;59.15;;;12.40;99.90;;;;;;5039388;28;20086;-46
2022/10/15 08:19:28;;;;;;;154.18;61.40;;;12.60;99.90;;;;;;5038805;28;20040;-48
2022/10/15 08:21:54;;;;;;;145.20;61.15;;;12.70;99.90;;;;;;5037189;28;20037;-45
2022/10/15 08:24:20;;;;;;;142.55;60.28;;;12.60;99.90;;;;;;5038563;28;20064;-46
2022/10/15 08:26:45;;;;;;;147.75;68.80;;;12.50;99.90;;;;;;5036828;28;20037;-45
2022/10/15 08:29:11;;;;;;;142.32;67.88;;;12.20;99.90;;;;;;5038084;28;20116;-45
2022/10/15 08:31:40;;;;;;;137.18;57.13;;;12.20;99.90;;;;;;5038267;28;20119;-46
2022/10/15 08:34:06;;;;;;;137.30;56.83;;;12.60;99.90;;;;;;5037490;28;20037;-47
2022/10/15 08:36:32;;;;;;;127.13;64.65;;;12.20;99.90;;;;;;5038118;28;20048;-47
2022/10/15 08:38:58;;;;;;;125.22;51.88;;;12.80;99.90;;;;;;5037784;28;20097;-46
2022/10/15 08:41:30;;;;;;;121.68;51.88;;;12.70;99.90;;;;;;5036995;28;20091;-46
2022/10/15 08:43:55;;;;;;;114.22;50.55;;;12.50;99.90;;;;;;5037598;28;20069;-48
2022/10/15 08:46:29;;;;;;;112.40;54.58;;;12.70;99.90;;;;;;5037976;28;20507;-47
2022/10/15 08:48:57;;;;;;;103.20;47.92;;;12.70;99.90;;;;;;5038080;28;20406;-47
2022/10/15 08:51:26;;;;;;;89.80;43.70;;;12.70;99.90;;;;;;5037800;28;20029;-46
2022/10/15 08:54:02;;;;;;;89.68;43.17;;;12.80;99.90;;;;;;5032710;28;20040;-45
2022/10/15 08:56:35;;;;;;;82.90;45.58;;;12.70;99.90;;;;;;5030304;28;20084;-46
2022/10/15 08:59:16;;;;;;;75.18;41.10;;;13.00;99.90;;;;;;5029273;28;20037;-48
2022/10/15 09:01:56;;;;;;;80.38;40.55;;;13.10;99.90;;;;;;5031979;28;20117;-45
2022/10/15 09:04:58;;;;;;;64.43;35.75;;;12.50;99.90;;;;;;5028549;28;20584;-47
2022/10/15 09:07:41;;;;;;;64.45;33.40;;;13.00;99.90;;;;;;5031541;28;20073;-45
2022/10/15 09:10:35;;;;;;;57.38;32.00;;;12.70;99.90;;;;;;5029350;28;21125;-49
2022/10/15 09:13:21;;;;;;;60.47;38.58;;;12.80;99.90;;;;;;5033282;28;20115;-46
2022/10/15 09:15:50;;;;;;;58.17;37.13;;;12.90;99.90;;;;;;5034331;28;20056;-47
2022/10/15 09:18:21;;;;;;;59.75;32.85;;;13.40;99.90;;;;;;5034589;28;20041;-47
2022/10/15 09:20:48;;;;;;;54.25;33.95;;;13.50;99.90;;;;;;5029591;28;20055;-47
2022/10/15 09:23:18;;;;;;;50.55;34.10;;;13.50;99.90;;;;;;5031779;28;20090;-45
2022/10/15 09:25:56;;;;;;;51.30;32.97;;;13.70;99.90;;;;;;5033568;28;20108;-48
2022/10/15 09:28:27;;;;;;;47.28;32.30;;;13.70;99.90;;;;;;5029415;28;20049;-47
2022/10/15 09:30:56;;;;;;;47.10;30.80;;;13.10;99.90;;;;;;5030222;28;20045;-47
2022/10/15 09:33:34;;;;;;;43.53;30.75;;;13.50;99.90;;;;;;5028984;28;20099;-45
2022/10/15 09:36:13;;;;;;;44.13;27.00;;;13.40;99.90;;;;;;5029816;28;20443;-46
2022/10/15 09:38:53;;;;;;;43.75;28.65;;;13.90;99.90;;;;;;5030240;28;20060;-44
2022/10/15 09:41:48;;;;;;;39.80;27.70;;;14.00;99.90;;;;;;5027814;28;20033;-46
2022/10/15 09:44:17;;;;;;;40.22;27.23;;;13.70;99.90;;;;;;5028985;28;20472;-46
2022/10/15 09:46:47;;;;;;;33.38;25.35;;;14.10;99.90;;;;;;5030321;28;20037;-49
2022/10/15 09:49:18;;;;;;;36.05;24.25;;;13.60;99.90;;;;;;5031425;28;20407;-46
2022/10/15 09:51:56;;;;;;;34.13;23.80;;;14.10;99.90;;;;;;5032412;28;20164;-46
2022/10/15 09:54:36;;;;;;;32.17;23.60;;;14.00;99.90;;;;;;5034476;28;20108;-45
2022/10/15 09:57:02;;;;;;;32.10;23.23;;;14.10;99.90;;;;;;5035555;28;20042;-45
2022/10/15 09:59:28;;;;;;;32.88;22.73;;;13.70;99.90;;;;;;5033857;28;20509;-46
2022/10/15 10:02:16;;;;;;;29.95;22.15;;;13.80;99.90;;;;;;5034270;28;20037;-45
2022/10/15 10:04:42;;;;;;;31.33;23.83;;;14.30;99.90;;;;;;5033222;28;20033;-45
2022/10/15 10:07:30;;;;;;;31.73;24.45;;;14.30;99.90;;;;;;5034997;28;20326;-44
2022/10/15 10:09:59;;;;;;;34.63;24.98;;;14.10;99.90;;;;;;5031558;28;20041;-44
2022/10/15 10:12:31;;;;;;;32.38;24.65;;;14.50;99.90;;;;;;5034870;28;20033;-44
2022/10/15 10:14:58;;;;;;;32.28;25.05;;;14.60;99.90;;;;;;5046938;28;20048;-43
2022/10/15 10:17:26;;;;;;;32.83;24.52;;;14.70;99.90;;;;;;5037711;28;20044;-44
2022/10/15 10:20:13;;;;;;;31.05;23.77;;;14.70;99.90;;;;;;5041551;28;20033;-45
2022/10/15 10:22:54;;;;;;;34.33;24.60;;;14.70;99.90;;;;;;5041878;28;20041;-43
2022/10/15 10:25:26;;;;;;;33.38;25.30;;;14.60;99.90;;;;;;5038660;28;20037;-46
2022/10/15 10:28:11;;;;;;;32.72;25.23;;;14.30;99.90;;;;;;5041577;28;20052;-47
2022/10/15 10:30:59;;;;;;;34.67;25.63;;;14.30;99.90;;;;;;5033680;28;20186;-45
2022/10/15 10:33:40;;;;;;;33.65;25.08;;;14.60;99.90;;;;;;5038686;28;20549;-47
2022/10/15 10:36:19;;;;;;;35.83;26.80;;;14.50;99.90;;;;;;5040310;28;20065;-46
2022/10/15 10:38:56;;;;;;;32.92;26.17;;;14.20;99.90;;;;;;5038394;28;20048;-46
2022/10/15 10:41:22;;;;;;;34.13;26.45;;;14.30;99.90;;;;;;5040669;28;20060;-46
2022/10/15 10:43:55;;;;;;;36.67;27.27;;;14.40;99.90;;;;;;5041248;28;20041;-48
2022/10/15 10:46:23;;;;;;;36.08;27.23;;;14.80;99.90;;;;;;5041888;28;20542;-46
2022/10/15 10:48:52;;;;;;;31.63;25.98;;;14.50;99.90;;;;;;5041267;28;20041;-44
2022/10/15 10:51:27;;;;;;;35.38;26.48;;;14.70;99.90;;;;;;5040524;28;20519;-47
2022/10/15 10:54:00;;;;;;;33.65;26.20;;;15.90;99.90;;;;;;5039863;28;20040;-47
2022/10/15 10:56:43;;;;;;;33.90;26.35;;;14.70;99.90;;;;;;5041255;28;20033;-47
2022/10/15 10:59:08;;;;;;;32.60;25.98;;;14.70;99.90;;;;;;5040818;28;20048;-47
2022/10/15 11:01:34;;;;;;;32.75;25.42;;;14.90;99.90;;;;;;5038444;28;20033;-46
2022/10/15 11:04:00;;;;;;;31.55;24.45;;;14.70;99.90;;;;;;5040373;28;20041;-48
2022/10/15 11:06:50;;;;;;;31.13;24.85;;;15.00;99.90;;;;;;5041559;28;20072;-44
2022/10/15 11:09:29;;;;;;;31.13;24.65;;;14.90;99.90;;;;;;5040697;28;20075;-45
2022/10/15 11:11:59;;;;;;;28.98;23.27;;;14.70;99.90;;;;;;5047482;28;20060;-45
2022/10/15 11:14:52;;;;;;;28.65;22.55;;;14.70;99.90;;;;;;5044416;28;20037;-46
2022/10/15 11:17:26;;;;;;;26.95;21.02;;;14.70;99.90;;;;;;5043035;28;20502;-44
2022/10/15 11:20:13;;;;;;;27.40;21.88;;;14.90;99.90;;;;;;5042268;28;20771;-44
2022/10/15 11:22:51;;;;;;;25.08;20.65;;;14.60;99.90;;;;;;5043991;28;20033;-46
2022/10/15 11:25:36;;;;;;;27.52;22.52;;;14.60;99.90;;;;;;5040772;28;20180;-46
2022/10/15 11:28:20;;;;;;;29.52;22.67;;;14.90;99.90;;;;;;5030987;28;20492;-45
2022/10/15 11:31:00;;;;;;;28.83;23.20;;;14.90;99.90;;;;;;5034279;28;20055;-47
2022/10/15 11:33:31;;;;;;;30.48;24.50;;;14.60;99.90;;;;;;5037065;28;20041;-45
2022/10/15 11:36:33;;;;;;;31.27;24.08;;;14.60;99.90;;;;;;5035253;28;20053;-46
2022/10/15 11:39:17;;;;;;;29.13;23.60;;;15.00;99.90;;;;;;5029541;28;20061;-44
2022/10/15 11:41:56;;;;;;;32.55;25.02;;;14.90;99.90;;;;;;5041390;28;20049;-46
2022/10/15 11:44:26;;;;;;;31.15;24.90;;;15.10;99.90;;;;;;5039386;28;20496;-44
2022/10/15 11:47:36;;;;;;;29.83;23.50;;;15.20;99.90;;;;;;5039020;28;20534;-45
2022/10/15 11:50:20;;;;;;;30.17;23.92;;;14.80;99.90;;;;;;5033849;28;20045;-44
2022/10/15 11:53:00;;;;;;;31.23;25.30;;;14.90;99.90;;;;;;5034763;28;20558;-44
2022/10/15 11:55:25;;;;;;;29.33;23.63;;;14.70;99.90;;;;;;5041773;28;20271;-43
2022/10/15 11:57:57;;;;;;;30.85;24.05;;;15.00;99.90;;;;;;5037502;28;20040;-44
2022/10/15 12:00:40;;;;;;;30.92;23.95;;;14.70;99.90;;;;;;5039357;28;20060;-43
2022/10/15 12:03:15;;;;;;;34.08;24.38;;;15.10;99.90;;;;;;5039044;28;20067;-44
2022/10/15 12:05:49;;;;;;;36.00;25.27;;;15.10;99.90;;;;;;5043645;28;20059;-42
2022/10/15 12:08:15;;;;;;;;;;;14.70;99.90;;;;;;5043695;28;20451;-42
2022/10/15 12:11:06;;;;;;;34.67;26.52;;;15.10;99.90;;;;;;5043733;28;19964;-44
2022/10/15 12:13:39;;;;;;;36.38;26.55;;;14.80;99.90;;;;;;5038502;28;20045;-44
2022/10/15 12:16:16;;;;;;;34.97;26.05;;;15.20;99.90;;;;;;5042248;28;20037;-44
2022/10/15 12:19:09;;;;;;;36.70;25.85;;;15.20;99.90;;;;;;5044372;28;20498;-45
2022/10/15 12:22:09;;;;;;;36.75;26.40;;;14.70;99.90;;;;;;5034846;28;20124;-46
2022/10/15 12:24:43;;;;;;;37.60;25.80;;;14.60;99.90;;;;;;5044274;28;20049;-43
2022/10/15 12:27:17;;;;;;;35.25;25.48;;;15.10;99.90;;;;;;5042169;28;20121;-44
2022/10/15 12:29:58;;;;;;;35.45;24.58;;;15.00;99.90;;;;;;5039342;28;20052;-44
2022/10/15 12:32:28;;;;;;;37.55;25.05;;;14.60;99.90;;;;;;5044697;28;20040;-43
2022/10/15 12:34:56;;;;;;;30.50;22.40;;;15.10;99.90;;;;;;5044390;28;20162;-44
2022/10/15 12:37:26;;;;;;;31.52;22.20;;;14.50;99.90;;;;;;5037346;28;20071;-44
2022/10/15 12:39:58;;;;;;;30.48;21.35;;;15.00;99.90;;;;;;5034937;28;20125;-43
2022/10/15 12:42:33;;;;;;;30.33;21.58;;;15.10;99.90;;;;;;5044296;28;20037;-44